createdAt,value
2023-03-28T00:01:45.744Z,-0.29
2023-03-28T00:04:15.333Z,-0.30
2023-03-28T00:06:46.455Z,-0.25
2023-03-28T00:09:16.963Z,-0.27
2023-03-28T00:11:49.313Z,-0.16
2023-03-28T00:14:18.800Z,-0.18
2023-03-28T00:16:48.394Z,-0.12
2023-03-28T00:19:20.887Z,-0.24
2023-03-28T00:21:52.350Z,-0.22
2023-03-28T00:24:23.944Z,-0.29
2023-03-28T00:27:00.633Z,-0.33
2023-03-28T00:29:30.323Z,-0.34
2023-03-28T00:31:59.865Z,-0.37
2023-03-28T00:34:29.349Z,-0.28
2023-03-28T00:36:58.912Z,-0.32
2023-03-28T00:39:29.558Z,-0.23
2023-03-28T00:42:02.924Z,-0.31
2023-03-28T00:44:47.581Z,-0.37
2023-03-28T00:47:36.896Z,-0.28
2023-03-28T00:50:11.057Z,-0.12
2023-03-28T00:52:43.297Z,-0.24
2023-03-28T00:55:16.563Z,-0.39
2023-03-28T00:57:50.441Z,-0.29
2023-03-28T01:00:21.213Z,-0.31
2023-03-28T01:02:53.271Z,-0.48
2023-03-28T01:05:27.321Z,-0.46
2023-03-28T01:07:59.888Z,-0.22
2023-03-28T01:10:29.600Z,0.39
2023-03-28T01:13:02.173Z,0.06
2023-03-28T01:15:33.643Z,0.07
2023-03-28T01:18:10.778Z,0.10
2023-03-28T01:21:18.418Z,0.36
2023-03-28T01:24:13.772Z,0.17
2023-03-28T01:27:01.322Z,0.21
2023-03-28T01:30:02.734Z,0.03
2023-03-28T01:33:07.736Z,-0.18
2023-03-28T01:36:03.231Z,-0.15
2023-03-28T01:38:39.639Z,-0.12
2023-03-28T01:41:17.436Z,-0.20
2023-03-28T01:43:51.801Z,-0.29
2023-03-28T01:46:25.117Z,-0.26
2023-03-28T01:49:00.963Z,-0.07
2023-03-28T01:51:39.012Z,0.00
2023-03-28T01:54:16.254Z,-0.34
2023-03-28T01:56:50.938Z,-0.35
2023-03-28T01:59:23.631Z,-0.18
2023-03-28T02:01:56.320Z,-0.27
2023-03-28T02:04:29.325Z,-0.20
2023-03-28T02:06:59.913Z,-0.39
2023-03-28T02:09:34.352Z,-0.64
2023-03-28T02:12:07.712Z,-0.56
2023-03-28T02:14:41.399Z,-0.62
2023-03-28T02:17:15.676Z,-0.41
2023-03-28T02:19:49.099Z,-0.46
2023-03-28T02:22:23.169Z,-0.49
2023-03-28T02:24:56.505Z,-0.58
2023-03-28T02:27:26.082Z,-0.46
2023-03-28T02:29:56.156Z,-0.36
2023-03-28T02:32:25.939Z,-0.73
2023-03-28T02:34:56.361Z,-0.64
2023-03-28T02:37:34.094Z,-0.64
2023-03-28T02:40:21.781Z,-1.02
2023-03-28T02:43:18.421Z,-1.26
2023-03-28T02:46:18.419Z,-1.24
2023-03-28T02:49:08.811Z,-0.89
2023-03-28T02:51:46.515Z,-0.85
2023-03-28T02:54:26.377Z,-0.84
2023-03-28T02:57:06.452Z,-0.78
2023-03-28T02:59:38.688Z,-1.17
2023-03-28T03:02:08.484Z,-1.16
2023-03-28T03:04:38.213Z,-1.32
2023-03-28T03:07:09.147Z,-1.60
2023-03-28T03:09:38.704Z,-1.59
2023-03-28T03:12:11.238Z,-1.60
2023-03-28T03:14:40.837Z,-1.43
2023-03-28T03:17:11.007Z,-1.10
2023-03-28T03:19:43.267Z,-0.98
2023-03-28T03:22:21.079Z,-0.92
2023-03-28T03:24:51.257Z,-1.09
2023-03-28T03:27:23.766Z,-1.48
2023-03-28T03:29:53.371Z,-1.80
2023-03-28T03:32:22.905Z,-1.71
2023-03-28T03:34:52.407Z,-1.67
2023-03-28T03:37:22.917Z,-1.74
2023-03-28T03:39:52.402Z,-1.95
2023-03-28T03:42:29.127Z,-1.96
2023-03-28T03:44:58.628Z,-1.90
2023-03-28T03:47:28.132Z,-2.00
2023-03-28T03:49:57.606Z,-2.01
2023-03-28T03:52:27.335Z,-1.97
2023-03-28T03:54:56.817Z,-1.77
2023-03-28T03:57:28.861Z,-1.87
2023-03-28T04:00:00.063Z,-1.38
2023-03-28T04:02:29.636Z,-1.13
2023-03-28T04:04:59.964Z,-1.04
2023-03-28T04:07:29.431Z,-0.78
2023-03-28T04:09:59.635Z,-0.79
2023-03-28T04:12:31.789Z,-0.63
2023-03-28T04:15:01.264Z,-1.05
2023-03-28T04:17:34.933Z,-1.35
2023-03-28T04:20:13.848Z,-1.48
2023-03-28T04:22:45.121Z,-1.88
2023-03-28T04:25:17.919Z,-2.04
2023-03-28T04:27:50.462Z,-1.98
2023-03-28T04:30:20.479Z,-2.05
2023-03-28T04:32:54.520Z,-1.88
2023-03-28T04:35:24.323Z,-1.95
2023-03-28T04:37:57.957Z,-2.06
2023-03-28T04:40:28.311Z,-2.05
2023-03-28T04:43:00.411Z,-1.86
2023-03-28T04:45:30.013Z,-1.99
2023-03-28T04:47:59.675Z,-1.97
2023-03-28T04:50:29.192Z,-2.16
2023-03-28T04:52:58.665Z,-2.18
2023-03-28T04:55:28.576Z,-2.16
2023-03-28T04:58:01.077Z,-2.18
2023-03-28T05:00:30.706Z,-2.15
2023-03-28T05:03:01.020Z,-1.92
2023-03-28T05:05:31.073Z,-1.94
2023-03-28T05:08:00.874Z,-1.92
2023-03-28T05:10:30.474Z,-2.05
2023-03-28T05:13:02.655Z,-2.04
2023-03-28T05:15:32.345Z,-1.98
2023-03-28T05:18:02.110Z,-1.75
2023-03-28T05:20:31.767Z,-1.74
2023-03-28T05:23:02.276Z,-1.58
2023-03-28T05:25:31.883Z,-1.00
2023-03-28T05:28:04.604Z,-0.87
2023-03-28T05:30:34.329Z,-0.85
2023-03-28T05:33:04.153Z,-0.89
2023-03-28T05:35:33.803Z,-0.69
2023-03-28T05:38:03.528Z,-0.57
2023-03-28T05:40:33.051Z,-0.81
2023-03-28T05:43:05.184Z,-1.24
2023-03-28T05:45:34.789Z,-1.38
2023-03-28T05:48:04.365Z,-0.84
2023-03-28T05:50:33.933Z,-1.04
2023-03-28T05:53:03.777Z,-1.41
2023-03-28T05:55:35.375Z,-1.44
2023-03-28T05:58:08.048Z,-1.48
2023-03-28T06:00:37.537Z,-1.42
2023-03-28T06:03:08.123Z,-1.33
2023-03-28T06:05:38.196Z,-1.19
2023-03-28T06:08:09.521Z,-1.25
2023-03-28T06:10:39.291Z,-1.10
2023-03-28T06:13:11.766Z,-1.01
2023-03-28T06:15:41.558Z,-1.02
2023-03-28T06:18:11.294Z,-1.02
2023-03-28T06:20:40.908Z,-0.91
2023-03-28T06:23:10.497Z,-0.85
2023-03-28T06:25:40.047Z,-0.76
2023-03-28T06:28:12.186Z,-0.75
2023-03-28T06:30:42.884Z,-0.45
2023-03-28T06:33:12.388Z,-0.45
2023-03-28T06:35:41.980Z,-0.41
2023-03-28T06:38:11.559Z,-0.28
2023-03-28T06:40:41.373Z,-0.32
2023-03-28T06:43:13.779Z,-0.37
2023-03-28T06:45:43.574Z,-0.18
2023-03-28T06:48:13.341Z,-0.21
2023-03-28T06:50:43.336Z,-0.18
2023-03-28T06:53:13.169Z,-0.06
2023-03-28T06:55:42.796Z,0.15
2023-03-28T06:58:15.055Z,0.16
2023-03-28T07:00:44.701Z,0.25
2023-03-28T07:03:14.596Z,0.28
2023-03-28T07:05:45.331Z,0.30
2023-03-28T07:08:15.938Z,0.40
2023-03-28T07:10:45.687Z,0.56
2023-03-28T07:13:17.826Z,0.60
2023-03-28T07:15:47.284Z,0.63
2023-03-28T07:18:17.032Z,0.82
2023-03-28T07:20:51.979Z,0.84
2023-03-28T07:23:31.132Z,0.97
2023-03-28T07:26:00.824Z,1.05
2023-03-28T07:28:33.129Z,1.21
2023-03-28T07:31:04.771Z,1.31
2023-03-28T07:33:37.428Z,1.42
2023-03-28T07:36:13.014Z,1.48
2023-03-28T07:38:42.877Z,1.58
2023-03-28T07:41:13.075Z,1.59
2023-03-28T07:43:47.502Z,1.61
2023-03-28T07:46:18.241Z,1.79
2023-03-28T07:48:47.900Z,1.87
2023-03-28T07:51:18.625Z,1.95
2023-03-28T07:53:48.240Z,2.07
2023-03-28T07:56:17.958Z,2.15
2023-03-28T07:58:50.109Z,2.28
2023-03-28T08:01:22.909Z,2.35
2023-03-28T08:03:53.125Z,2.47
2023-03-28T08:06:32.155Z,2.62
2023-03-28T08:09:02.376Z,2.68
2023-03-28T08:11:31.902Z,2.81
2023-03-28T08:14:04.340Z,2.86
2023-03-28T08:16:34.500Z,3.00
2023-03-28T08:21:39.434Z,3.22
2023-03-28T08:24:17.351Z,3.13
2023-03-28T08:26:52.293Z,3.22
2023-03-28T08:29:24.412Z,3.36
2023-03-28T08:31:54.157Z,3.40
2023-03-28T08:34:23.703Z,3.34
2023-03-28T08:36:53.526Z,3.47
2023-03-28T08:39:23.518Z,3.46
2023-03-28T08:42:11.187Z,3.62
2023-03-28T08:44:59.344Z,3.64
2023-03-28T08:47:31.602Z,3.75
2023-03-28T08:50:04.453Z,3.65
2023-03-28T08:52:34.932Z,3.73
2023-03-28T08:55:07.208Z,3.89
2023-03-28T08:57:38.029Z,4.08
2023-03-28T09:00:17.360Z,4.12
2023-03-28T09:02:47.241Z,4.17
2023-03-28T09:05:23.520Z,4.43
2023-03-28T09:07:57.171Z,4.37
2023-03-28T09:10:30.814Z,4.14
2023-03-28T09:13:10.453Z,4.31
2023-03-28T09:16:03.246Z,4.49
2023-03-28T09:18:55.842Z,4.41
2023-03-28T09:21:31.255Z,4.53
2023-03-28T09:24:13.163Z,4.72
2023-03-28T09:26:45.280Z,4.86
2023-03-28T09:29:17.906Z,4.98
2023-03-28T09:31:52.802Z,5.18
2023-03-28T09:34:27.469Z,5.03
2023-03-28T09:37:01.150Z,4.54
2023-03-28T09:39:36.947Z,4.66
2023-03-28T09:42:09.457Z,4.76
2023-03-28T09:44:54.362Z,4.96
2023-03-28T09:47:27.570Z,5.13
2023-03-28T09:50:09.576Z,5.38
2023-03-28T09:52:42.184Z,5.29
2023-03-28T09:55:18.714Z,5.11
2023-03-28T09:58:09.692Z,4.86
2023-03-28T10:00:40.780Z,4.88
2023-03-28T10:03:23.297Z,5.04
2023-03-28T10:05:54.078Z,5.06
2023-03-28T10:08:29.863Z,4.87
2023-03-28T10:11:03.290Z,4.81
2023-03-28T10:13:40.524Z,4.54
2023-03-28T10:16:12.537Z,4.61
2023-03-28T10:18:45.639Z,4.53
2023-03-28T10:21:17.911Z,4.80
2023-03-28T10:23:51.465Z,4.98
2023-03-28T10:26:24.602Z,4.85
2023-03-28T10:28:57.627Z,4.93
2023-03-28T10:31:29.775Z,5.03
2023-03-28T10:34:03.198Z,4.97
2023-03-28T10:36:34.849Z,5.01
2023-03-28T10:39:24.006Z,4.99
2023-03-28T10:41:57.560Z,4.90
2023-03-28T10:44:31.758Z,4.80
2023-03-28T10:47:04.872Z,4.61
2023-03-28T10:49:44.184Z,4.83
2023-03-28T10:52:19.684Z,4.72
2023-03-28T10:54:57.308Z,4.77
2023-03-28T10:57:29.946Z,4.76
2023-03-28T11:00:04.162Z,4.88
2023-03-28T11:03:16.282Z,4.89
2023-03-28T11:06:08.058Z,5.08
2023-03-28T11:08:46.039Z,5.30
2023-03-28T11:11:30.094Z,5.45
2023-03-28T11:14:04.409Z,5.63
2023-03-28T11:16:42.511Z,5.67
2023-03-28T11:19:17.898Z,5.65
2023-03-28T11:21:55.149Z,5.68
2023-03-28T11:24:30.815Z,5.83
2023-03-28T11:27:15.386Z,6.13
2023-03-28T11:29:49.417Z,6.30
2023-03-28T11:32:21.768Z,6.39
2023-03-28T11:35:04.607Z,6.21
2023-03-28T11:37:39.888Z,6.07
2023-03-28T11:40:18.526Z,5.88
2023-03-28T11:42:52.071Z,5.74
2023-03-28T11:45:46.734Z,5.87
2023-03-28T11:48:22.264Z,5.90
2023-03-28T11:50:59.472Z,5.86
2023-03-28T11:53:34.711Z,5.87
2023-03-28T11:56:09.550Z,5.81
2023-03-28T11:58:43.087Z,5.84
2023-03-28T12:01:15.828Z,5.86
2023-03-28T12:03:56.371Z,5.77
2023-03-28T12:06:29.856Z,5.64
2023-03-28T12:09:05.172Z,5.56
2023-03-28T12:11:37.510Z,5.61
2023-03-28T12:14:12.821Z,5.53
2023-03-28T12:16:45.436Z,5.62
2023-03-28T12:19:18.651Z,5.63
2023-03-28T12:21:54.383Z,5.70
2023-03-28T12:24:35.480Z,5.97
2023-03-28T12:27:09.464Z,5.77
2023-03-28T12:29:44.296Z,5.75
2023-03-28T12:32:27.533Z,5.62
2023-03-28T12:35:19.862Z,5.14
2023-03-28T12:38:00.996Z,5.16
2023-03-28T12:40:45.869Z,4.87
2023-03-28T12:43:16.309Z,4.56
2023-03-28T12:45:49.087Z,4.40
2023-03-28T12:48:21.044Z,4.40
2023-03-28T12:50:54.350Z,4.52
2023-03-28T12:53:24.365Z,4.59
2023-03-28T12:55:56.739Z,4.61
2023-03-28T12:58:29.553Z,4.66
2023-03-28T13:01:04.986Z,4.55
2023-03-28T13:03:40.064Z,4.40
2023-03-28T13:06:17.658Z,4.43
2023-03-28T13:08:57.606Z,4.55
2023-03-28T13:11:36.455Z,4.35
2023-03-28T13:14:08.913Z,4.41
2023-03-28T13:16:48.901Z,4.48
2023-03-28T13:19:20.410Z,4.68
2023-03-28T13:21:54.136Z,4.61
2023-03-28T13:24:34.739Z,4.56
2023-03-28T13:27:09.657Z,4.65
2023-03-28T13:29:49.830Z,5.11
2023-03-28T13:32:21.041Z,5.41
2023-03-28T13:34:51.742Z,5.61
2023-03-28T13:37:23.816Z,5.35
2023-03-28T13:39:54.976Z,5.37
2023-03-28T13:42:36.007Z,5.35
2023-03-28T13:45:08.027Z,5.15
2023-03-28T13:47:39.494Z,4.94
2023-03-28T13:50:19.620Z,4.84
2023-03-28T13:52:49.161Z,4.80
2023-03-28T13:55:23.551Z,4.84
2023-03-28T13:57:56.236Z,4.83
2023-03-28T14:00:29.026Z,4.85
2023-03-28T14:03:05.551Z,4.97
2023-03-28T14:05:36.106Z,5.06
2023-03-28T14:08:23.946Z,5.19
2023-03-28T14:10:55.580Z,5.30
2023-03-28T14:13:30.529Z,5.35
2023-03-28T14:16:00.320Z,5.65
2023-03-28T14:18:33.941Z,6.07
2023-03-28T14:21:06.722Z,6.21
2023-03-28T14:23:39.063Z,6.14
2023-03-28T14:26:13.951Z,6.18
2023-03-28T14:28:47.513Z,6.39
2023-03-28T14:31:18.782Z,7.00
2023-03-28T14:33:49.672Z,6.85
2023-03-28T14:36:19.501Z,7.43
2023-03-28T14:38:49.241Z,7.18
2023-03-28T14:41:21.694Z,7.67
2023-03-28T14:43:57.519Z,7.97
2023-03-28T14:46:29.495Z,7.81
2023-03-28T14:49:01.557Z,7.68
2023-03-28T14:51:31.073Z,7.64
2023-03-28T14:54:00.560Z,7.60
2023-03-28T14:56:30.864Z,7.23
2023-03-28T14:59:05.634Z,7.03
2023-03-28T15:01:37.919Z,6.72
2023-03-28T15:04:09.366Z,7.48
2023-03-28T15:06:39.554Z,7.65
2023-03-28T15:09:13.905Z,7.60
2023-03-28T15:11:46.328Z,7.88
2023-03-28T15:14:20.428Z,8.66
2023-03-28T15:16:50.295Z,8.40
2023-03-28T15:19:23.316Z,8.15
2023-03-28T15:21:57.558Z,7.59
2023-03-28T15:24:29.187Z,7.26
2023-03-28T15:27:01.770Z,7.22
2023-03-28T15:29:39.600Z,7.02
2023-03-28T15:32:10.779Z,6.80
2023-03-28T15:34:49.142Z,6.81
2023-03-28T15:37:22.700Z,6.88
2023-03-28T15:39:53.201Z,6.87
2023-03-28T15:42:38.232Z,6.64
2023-03-28T15:45:38.590Z,6.56
2023-03-28T15:48:08.792Z,6.67
2023-03-28T15:50:39.379Z,6.61
2023-03-28T15:53:10.602Z,6.80
2023-03-28T15:55:40.159Z,6.98
2023-03-28T15:58:09.984Z,6.60
2023-03-28T16:00:45.841Z,6.62
2023-03-28T16:03:34.220Z,6.53
2023-03-28T16:06:31.698Z,6.52
2023-03-28T16:09:17.118Z,6.54
2023-03-28T16:11:47.303Z,6.51
2023-03-28T16:14:20.548Z,6.68
2023-03-28T16:16:56.598Z,6.80
2023-03-28T16:19:28.391Z,6.92
2023-03-28T16:22:00.539Z,6.81
2023-03-28T16:24:31.513Z,6.57
2023-03-28T16:27:01.478Z,6.60
2023-03-28T16:29:31.072Z,6.56
2023-03-28T16:32:03.389Z,6.60
2023-03-28T16:34:33.009Z,6.54
2023-03-28T16:37:02.499Z,6.47
2023-03-28T16:39:32.447Z,6.35
2023-03-28T16:42:01.978Z,6.16
2023-03-28T16:44:32.492Z,6.15
2023-03-28T16:47:05.795Z,6.15
2023-03-28T16:49:35.388Z,6.07
2023-03-28T16:52:05.348Z,6.03
2023-03-28T16:54:34.855Z,5.96
2023-03-28T16:57:07.124Z,5.90
2023-03-28T16:59:38.868Z,5.95
2023-03-28T17:02:12.827Z,5.89
2023-03-28T17:04:42.296Z,5.86
2023-03-28T17:07:11.792Z,5.88
2023-03-28T17:09:42.860Z,5.90
2023-03-28T17:12:12.442Z,5.88
2023-03-28T17:14:42.493Z,5.90
2023-03-28T17:17:17.708Z,5.78
2023-03-28T17:19:47.173Z,5.76
2023-03-28T17:22:16.840Z,5.74
2023-03-28T17:24:46.987Z,5.63
2023-03-28T17:27:17.067Z,5.60
2023-03-28T17:29:46.586Z,5.63
2023-03-28T17:32:18.808Z,5.53
2023-03-28T17:34:48.516Z,5.45
2023-03-28T17:37:18.093Z,5.46
2023-03-28T17:39:47.690Z,5.43
2023-03-28T17:42:17.490Z,5.39
2023-03-28T17:44:47.278Z,5.38
2023-03-28T17:47:19.384Z,5.35
2023-03-28T17:49:49.292Z,5.32
2023-03-28T17:52:19.333Z,5.24
2023-03-28T17:54:51.354Z,5.17
2023-03-28T17:57:21.624Z,5.14
2023-03-28T17:59:51.234Z,5.04
2023-03-28T18:02:23.453Z,5.02
2023-03-28T18:04:53.758Z,4.96
2023-03-28T18:07:23.283Z,4.88
2023-03-28T18:09:52.848Z,4.87
2023-03-28T18:12:22.627Z,4.89
2023-03-28T18:14:52.096Z,4.85
2023-03-28T18:17:24.298Z,4.79
2023-03-28T18:19:53.837Z,4.76
2023-03-28T18:22:23.484Z,4.74
2023-03-28T18:24:56.182Z,4.68
2023-03-28T18:27:25.641Z,4.69
2023-03-28T18:29:55.154Z,4.66
2023-03-28T18:32:27.645Z,4.66
2023-03-28T18:34:57.134Z,4.60
2023-03-28T18:37:27.170Z,4.57
2023-03-28T18:39:57.558Z,4.54
2023-03-28T18:42:27.882Z,4.54
2023-03-28T18:44:59.658Z,4.60
2023-03-28T18:47:32.246Z,4.61
2023-03-28T18:50:01.719Z,4.56
2023-03-28T18:52:31.262Z,4.52
2023-03-28T18:55:01.308Z,4.54
2023-03-28T18:57:30.782Z,4.53
2023-03-28T19:00:07.879Z,4.46
2023-03-28T19:02:40.141Z,4.52
2023-03-28T19:05:11.046Z,4.45
2023-03-28T19:07:41.017Z,4.41
2023-03-28T19:10:13.036Z,4.40
2023-03-28T19:12:43.038Z,4.42
2023-03-28T19:15:14.943Z,4.38
2023-03-28T19:17:47.808Z,4.39
2023-03-28T19:20:17.490Z,4.34
2023-03-28T19:22:47.054Z,4.39
2023-03-28T19:25:16.785Z,4.42
2023-03-28T19:27:48.505Z,4.38
2023-03-28T19:30:18.327Z,4.41
2023-03-28T19:32:50.896Z,4.37
2023-03-28T19:35:20.560Z,4.37
2023-03-28T19:37:50.039Z,4.31
2023-03-28T19:40:19.681Z,4.34
2023-03-28T19:42:49.523Z,4.35
2023-03-28T19:45:19.220Z,4.41
2023-03-28T19:47:51.901Z,4.37
2023-03-28T19:50:22.005Z,4.38
2023-03-28T19:52:51.640Z,4.35
2023-03-28T19:55:21.217Z,4.36
2023-03-28T19:57:50.801Z,4.46
2023-03-28T20:00:21.540Z,4.46
2023-03-28T20:02:54.134Z,4.41
2023-03-28T20:05:23.754Z,4.44
2023-03-28T20:07:53.259Z,4.44
2023-03-28T20:10:22.737Z,4.44
2023-03-28T20:12:52.217Z,4.48
2023-03-28T20:15:21.736Z,4.53
2023-03-28T20:17:53.869Z,4.60
2023-03-28T20:20:24.092Z,4.71
2023-03-28T20:22:53.809Z,4.71
2023-03-28T20:25:24.355Z,4.58
2023-03-28T20:27:54.073Z,4.65
2023-03-28T20:30:23.572Z,4.70
2023-03-28T20:32:55.837Z,4.69
2023-03-28T20:35:26.830Z,4.64
2023-03-28T20:37:57.117Z,4.59
2023-03-28T20:40:26.771Z,4.59
2023-03-28T20:42:57.568Z,4.61
2023-03-28T20:45:27.176Z,4.64
2023-03-28T20:48:06.455Z,4.53
2023-03-28T20:50:37.713Z,4.55
2023-03-28T20:53:08.242Z,4.61
2023-03-28T20:55:37.934Z,4.51
2023-03-28T20:58:08.833Z,4.58
2023-03-28T21:00:39.903Z,4.53
2023-03-28T21:03:15.885Z,4.56
2023-03-28T21:05:46.833Z,4.52
2023-03-28T21:08:19.719Z,4.60
2023-03-28T21:10:54.784Z,4.60
2023-03-28T21:13:24.301Z,4.54
2023-03-28T21:15:53.802Z,4.56
2023-03-28T21:18:26.258Z,4.55
2023-03-28T21:20:56.420Z,4.56
2023-03-28T21:23:26.166Z,4.45
2023-03-28T21:25:55.675Z,4.44
2023-03-28T21:28:25.162Z,4.50
2023-03-28T21:31:01.718Z,4.46
2023-03-28T21:33:33.960Z,4.48
2023-03-28T21:36:04.418Z,4.46
2023-03-28T21:38:33.973Z,4.41
2023-03-28T21:41:03.720Z,4.40
2023-03-28T21:43:33.382Z,4.49
2023-03-28T21:46:02.978Z,4.44
2023-03-28T21:48:35.086Z,4.43
2023-03-28T21:51:04.887Z,4.42
2023-03-28T21:53:36.300Z,4.37
2023-03-28T21:56:06.846Z,4.40
2023-03-28T21:58:36.839Z,4.37
2023-03-28T22:01:06.958Z,4.32
2023-03-28T22:03:40.862Z,4.38
2023-03-28T22:06:11.587Z,4.45
2023-03-28T22:08:41.213Z,4.37
2023-03-28T22:11:14.807Z,4.32
2023-03-28T22:13:45.171Z,4.28
2023-03-28T22:16:15.689Z,4.21
2023-03-28T22:18:50.485Z,4.21
2023-03-28T22:21:20.187Z,4.19
2023-03-28T22:23:49.901Z,4.14
2023-03-28T22:26:20.114Z,4.10
2023-03-28T22:28:49.981Z,4.09
2023-03-28T22:31:19.586Z,4.07
2023-03-28T22:33:51.874Z,4.01
2023-03-28T22:36:23.684Z,3.88
2023-03-28T22:38:54.902Z,3.79
2023-03-28T22:41:32.114Z,3.75
2023-03-28T22:44:01.701Z,3.71
2023-03-28T22:46:31.372Z,3.64
2023-03-28T22:49:04.663Z,3.59
2023-03-28T22:51:34.540Z,3.45
2023-03-28T22:54:06.204Z,3.31
2023-03-28T22:56:35.724Z,3.21
2023-03-28T22:59:05.199Z,3.14
2023-03-28T23:01:35.395Z,3.00
2023-03-28T23:04:07.941Z,2.95
2023-03-28T23:06:39.238Z,2.88
2023-03-28T23:09:08.901Z,2.92
2023-03-28T23:11:38.698Z,2.88
2023-03-28T23:14:08.335Z,2.86
2023-03-28T23:16:38.634Z,2.83
2023-03-28T23:19:11.101Z,2.77
2023-03-28T23:21:41.721Z,2.78
2023-03-28T23:24:12.020Z,2.78
2023-03-28T23:26:41.683Z,2.74
2023-03-28T23:29:11.337Z,2.73
2023-03-28T23:31:41.091Z,2.74
2023-03-28T23:34:13.203Z,2.78
2023-03-28T23:36:42.982Z,2.73
2023-03-28T23:39:13.487Z,2.74
2023-03-28T23:41:43.466Z,2.77
2023-03-28T23:44:12.989Z,2.78
2023-03-28T23:46:45.068Z,2.77
2023-03-28T23:49:17.170Z,2.76
2023-03-28T23:51:46.969Z,2.78
2023-03-28T23:54:18.170Z,2.89
2023-03-28T23:56:49.276Z,3.36
2023-03-28T23:59:19.234Z,3.14
